createdAt,value
2022-09-28T00:01:09.668Z,77.50
2022-09-28T00:04:12.188Z,80.46
2022-09-28T00:07:14.107Z,82.91
2022-09-28T00:10:16.410Z,82.67
2022-09-28T00:13:18.598Z,83.56
2022-09-28T00:16:22.549Z,84.21
2022-09-28T00:19:24.671Z,84.54
2022-09-28T00:22:28.059Z,80.23
2022-09-28T00:25:29.994Z,82.44
2022-09-28T00:28:32.765Z,81.74
2022-09-28T00:31:35.427Z,78.31
2022-09-28T00:34:41.240Z,77.83
2022-09-28T00:37:43.439Z,78.36
2022-09-28T00:40:46.790Z,77.48
2022-09-28T00:43:48.802Z,74.92
2022-09-28T00:46:56.780Z,73.49
2022-09-28T00:50:05.072Z,75.27
2022-09-28T00:53:14.595Z,78.27
2022-09-28T00:56:19.170Z,75.83
2022-09-28T00:59:24.668Z,73.07
2022-09-28T01:02:26.702Z,75.96
2022-09-28T01:05:29.515Z,79.43
2022-09-28T01:08:32.653Z,75.53
2022-09-28T01:11:36.010Z,74.83
2022-09-28T01:14:39.652Z,76.64
2022-09-28T01:17:53.241Z,79.77
2022-09-28T01:21:01.664Z,80.23
2022-09-28T01:24:20.075Z,77.32
2022-09-28T01:27:29.835Z,79.80
2022-09-28T01:30:37.431Z,83.05
2022-09-28T01:33:41.927Z,82.57
2022-09-28T01:36:47.931Z,83.23
2022-09-28T01:39:52.716Z,83.74
2022-09-28T01:42:57.603Z,85.10
2022-09-28T01:46:07.983Z,81.29
2022-09-28T01:49:25.839Z,82.67
2022-09-28T01:52:35.143Z,83.75
2022-09-28T01:55:41.785Z,83.51
2022-09-28T01:58:50.749Z,83.47
2022-09-28T02:02:12.528Z,83.76
2022-09-28T02:05:20.030Z,84.69
2022-09-28T02:08:26.853Z,87.09
2022-09-28T02:11:29.509Z,86.03
2022-09-28T02:14:34.100Z,83.41
2022-09-28T02:17:36.657Z,86.26
2022-09-28T02:20:39.820Z,87.00
2022-09-28T02:23:47.479Z,85.00
2022-09-28T02:26:50.617Z,85.79
2022-09-28T02:29:53.201Z,84.07
2022-09-28T02:32:57.631Z,83.64
2022-09-28T02:36:00.677Z,87.17
2022-09-28T02:39:03.873Z,86.57
2022-09-28T02:42:11.873Z,88.20
2022-09-28T02:45:24.642Z,87.38
2022-09-28T02:48:55.839Z,88.58
2022-09-28T02:52:19.911Z,88.53
2022-09-28T02:55:33.844Z,89.28
2022-09-28T02:58:42.107Z,89.93
2022-09-28T03:01:58.399Z,88.05
2022-09-28T03:05:03.941Z,89.18
2022-09-28T03:08:11.828Z,89.05
2022-09-28T03:11:16.682Z,86.32
2022-09-28T03:14:21.769Z,86.48
2022-09-28T03:17:24.414Z,85.33
2022-09-28T03:20:27.001Z,85.67
2022-09-28T03:23:29.430Z,87.39
2022-09-28T03:26:31.943Z,88.61
2022-09-28T03:29:34.576Z,89.65
2022-09-28T03:32:37.452Z,90.25
2022-09-28T03:35:39.861Z,89.79
2022-09-28T03:38:42.098Z,87.64
2022-09-28T03:41:45.453Z,89.29
2022-09-28T03:44:47.471Z,87.25
2022-09-28T03:47:50.049Z,87.57
2022-09-28T03:50:54.956Z,88.84
2022-09-28T03:53:58.489Z,88.75
2022-09-28T03:57:01.139Z,86.05
2022-09-28T04:00:04.872Z,87.78
2022-09-28T04:03:15.546Z,85.68
2022-09-28T04:06:18.038Z,86.33
2022-09-28T04:09:19.936Z,87.07
2022-09-28T04:12:22.098Z,86.92
2022-09-28T04:15:24.562Z,86.63
2022-09-28T04:18:26.833Z,86.30
2022-09-28T04:21:30.684Z,87.48
2022-09-28T04:24:33.649Z,87.41
2022-09-28T04:27:54.333Z,88.32
2022-09-28T04:30:56.577Z,87.90
2022-09-28T04:33:58.669Z,88.55
2022-09-28T04:37:00.833Z,87.43
2022-09-28T04:40:03.316Z,86.79
2022-09-28T04:43:06.427Z,87.51
2022-09-28T04:46:10.158Z,88.12
2022-09-28T04:49:12.579Z,88.42
2022-09-28T04:52:18.315Z,86.35
2022-09-28T04:55:22.564Z,80.98
2022-09-28T04:58:24.508Z,79.88
2022-09-28T05:01:26.813Z,79.72
2022-09-28T05:04:30.955Z,80.94
2022-09-28T05:07:34.031Z,81.84
2022-09-28T05:10:36.860Z,83.55
2022-09-28T05:13:45.432Z,84.81
2022-09-28T05:16:48.882Z,84.74
2022-09-28T05:19:52.927Z,87.18
2022-09-28T05:22:55.904Z,87.45
2022-09-28T05:26:00.890Z,87.74
2022-09-28T05:29:03.303Z,81.77
2022-09-28T05:32:07.863Z,83.89
2022-09-28T05:35:11.178Z,85.64
2022-09-28T05:38:13.494Z,78.43
2022-09-28T05:41:15.420Z,67.44
2022-09-28T05:44:17.668Z,56.10
2022-09-28T05:47:19.869Z,44.23
2022-09-28T05:50:22.441Z,36.40
2022-09-28T05:53:24.858Z,32.13
2022-09-28T05:56:29.524Z,29.96
2022-09-28T05:59:31.588Z,26.72
2022-09-28T06:02:33.970Z,23.47
2022-09-28T06:05:37.107Z,26.46
2022-09-28T06:08:42.891Z,28.39
2022-09-28T06:11:45.944Z,30.08
2022-09-28T06:14:49.432Z,34.21
2022-09-28T06:17:58.501Z,37.49
2022-09-28T06:21:02.568Z,41.13
2022-09-28T06:24:05.524Z,44.13
2022-09-28T06:27:07.506Z,46.00
2022-09-28T06:30:12.137Z,49.54
2022-09-28T06:33:15.422Z,52.61
2022-09-28T06:36:18.035Z,56.51
2022-09-28T06:39:20.101Z,56.79
2022-09-28T06:42:22.917Z,56.45
2022-09-28T06:45:31.775Z,55.77
2022-09-28T06:48:36.353Z,56.45
2022-09-28T06:51:38.327Z,57.61
2022-09-28T06:54:41.935Z,59.40
2022-09-28T06:57:44.055Z,58.31
2022-09-28T07:00:47.362Z,58.53
2022-09-28T07:03:53.609Z,59.29
2022-09-28T07:06:59.068Z,60.70
2022-09-28T07:10:03.201Z,60.93
2022-09-28T07:13:09.521Z,61.42
2022-09-28T07:16:13.547Z,62.02
2022-09-28T07:19:16.564Z,62.95
2022-09-28T07:22:23.238Z,62.84
2022-09-28T07:25:36.343Z,63.31
2022-09-28T07:28:41.470Z,61.89
2022-09-28T07:31:43.997Z,62.10
2022-09-28T07:34:48.640Z,63.81
2022-09-28T07:38:05.409Z,61.65
2022-09-28T07:41:14.830Z,61.99
2022-09-28T07:44:19.087Z,62.57
2022-09-28T07:47:30.817Z,62.86
2022-09-28T07:50:43.152Z,63.24
2022-09-28T07:53:45.799Z,63.22
2022-09-28T07:56:49.714Z,62.77
2022-09-28T07:59:53.590Z,63.58
2022-09-28T08:02:59.210Z,62.80
2022-09-28T08:06:03.624Z,64.02
2022-09-28T08:09:05.896Z,62.86
2022-09-28T08:12:21.817Z,63.39
2022-09-28T08:15:24.472Z,63.38
2022-09-28T08:18:27.077Z,63.29
2022-09-28T08:21:47.373Z,63.62
2022-09-28T08:24:49.679Z,62.68
2022-09-28T08:27:52.270Z,65.36
2022-09-28T08:30:55.236Z,64.44
2022-09-28T08:33:58.303Z,64.71
2022-09-28T08:37:02.529Z,64.75
2022-09-28T08:40:06.206Z,64.36
2022-09-28T08:43:20.752Z,65.14
2022-09-28T08:46:31.674Z,63.60
2022-09-28T08:49:37.241Z,62.99
2022-09-28T08:52:40.190Z,61.79
2022-09-28T08:55:42.851Z,60.32
2022-09-28T08:58:48.180Z,61.28
2022-09-28T09:01:58.153Z,61.56
2022-09-28T09:05:02.616Z,61.29
2022-09-28T09:08:06.168Z,60.79
2022-09-28T09:11:08.264Z,60.13
2022-09-28T09:14:19.855Z,63.49
2022-09-28T09:17:28.765Z,63.26
2022-09-28T09:20:50.044Z,62.40
2022-09-28T09:23:56.905Z,62.03
2022-09-28T09:27:05.806Z,61.61
2022-09-28T09:30:11.419Z,60.18
2022-09-28T09:33:30.838Z,62.37
2022-09-28T09:36:47.703Z,61.07
2022-09-28T09:39:53.126Z,59.55
2022-09-28T09:43:02.043Z,60.02
2022-09-28T09:46:19.424Z,58.47
2022-09-28T09:49:38.926Z,61.56
2022-09-28T09:52:45.154Z,58.71
2022-09-28T09:55:50.434Z,56.81
2022-09-28T09:58:59.163Z,57.72
2022-09-28T10:02:20.615Z,55.46
2022-09-28T10:05:29.439Z,56.49
2022-09-28T10:08:34.550Z,53.93
2022-09-28T10:11:39.436Z,53.82
2022-09-28T10:14:44.985Z,54.81
2022-09-28T10:17:49.034Z,54.91
2022-09-28T10:20:58.131Z,56.45
2022-09-28T10:24:02.825Z,57.73
2022-09-28T10:27:07.625Z,54.93
2022-09-28T10:30:10.219Z,54.43
2022-09-28T10:33:43.885Z,53.48
2022-09-28T10:36:48.898Z,53.19
2022-09-28T10:39:55.810Z,51.26
2022-09-28T10:43:01.125Z,52.33
2022-09-28T10:46:06.406Z,53.17
2022-09-28T10:49:15.541Z,51.55
2022-09-28T10:52:38.281Z,53.63
2022-09-28T10:55:40.722Z,53.00
2022-09-28T10:58:43.076Z,51.50
2022-09-28T11:01:45.739Z,53.00
2022-09-28T11:04:53.748Z,54.68
2022-09-28T11:07:57.687Z,56.14
2022-09-28T11:11:04.110Z,57.27
2022-09-28T11:14:18.123Z,53.76
2022-09-28T11:17:40.439Z,50.13
2022-09-28T11:20:45.331Z,50.79
2022-09-28T11:24:05.678Z,51.88
2022-09-28T11:27:19.025Z,49.76
2022-09-28T11:30:23.270Z,48.12
2022-09-28T11:33:31.130Z,41.23
2022-09-28T11:36:51.974Z,35.64
2022-09-28T11:40:03.110Z,33.04
2022-09-28T11:43:11.473Z,33.29
2022-09-28T11:46:25.920Z,35.28
2022-09-28T11:49:47.718Z,38.64
2022-09-28T11:52:56.157Z,40.99
2022-09-28T11:56:09.070Z,42.30
2022-09-28T11:59:14.803Z,42.89
2022-09-28T12:02:22.107Z,37.33
2022-09-28T12:05:26.859Z,37.44
2022-09-28T12:08:37.370Z,35.75
2022-09-28T12:11:43.921Z,35.48
2022-09-28T12:14:48.495Z,32.21
2022-09-28T12:17:50.629Z,32.56
2022-09-28T12:21:04.434Z,33.11
2022-09-28T12:24:16.017Z,31.34
2022-09-28T12:27:47.390Z,31.66
2022-09-28T12:30:49.904Z,32.78
2022-09-28T12:33:52.110Z,34.21
2022-09-28T12:37:13.197Z,31.22
2022-09-28T12:40:18.390Z,33.51
2022-09-28T12:43:20.882Z,33.36
2022-09-28T12:46:22.934Z,34.34
2022-09-28T12:53:13.929Z,33.86
2022-09-28T12:56:22.377Z,34.27
2022-09-28T12:59:46.356Z,34.68
2022-09-28T13:03:07.218Z,33.64
2022-09-28T13:06:25.609Z,34.39
2022-09-28T13:09:31.392Z,36.88
2022-09-28T13:12:47.226Z,40.00
2022-09-28T13:15:49.532Z,41.98
2022-09-28T13:18:54.535Z,45.16
2022-09-28T13:22:15.365Z,46.14
2022-09-28T13:25:19.223Z,43.51
2022-09-28T13:28:26.241Z,41.08
2022-09-28T13:31:34.927Z,43.30
2022-09-28T13:34:39.634Z,44.70
2022-09-28T13:37:41.721Z,46.74
2022-09-28T13:41:10.425Z,44.98
2022-09-28T13:44:20.197Z,45.23
2022-09-28T13:47:38.400Z,47.26
2022-09-28T13:50:55.701Z,46.17
2022-09-28T13:54:06.865Z,45.60
2022-09-28T13:57:25.190Z,46.95
2022-09-28T14:00:30.787Z,47.63
2022-09-28T14:03:45.286Z,47.48
2022-09-28T14:06:59.242Z,45.88
2022-09-28T14:10:10.752Z,47.42
2022-09-28T14:13:12.839Z,46.33
2022-09-28T14:16:18.090Z,47.22
2022-09-28T14:19:24.894Z,45.15
2022-09-28T14:22:27.135Z,46.70
2022-09-28T14:25:33.263Z,45.59
2022-09-28T14:28:50.364Z,47.25
2022-09-28T14:31:52.501Z,48.88
2022-09-28T14:34:56.864Z,48.14
2022-09-28T14:38:18.867Z,47.28
2022-09-28T14:41:31.335Z,46.85
2022-09-28T14:44:53.345Z,47.97
2022-09-28T14:48:12.376Z,48.45
2022-09-28T14:51:26.728Z,48.68
2022-09-28T14:54:48.117Z,51.06
2022-09-28T14:57:55.640Z,50.92
2022-09-28T15:01:03.428Z,51.04
2022-09-28T15:04:09.607Z,51.39
2022-09-28T15:07:22.566Z,53.49
2022-09-28T15:10:32.158Z,54.07
2022-09-28T15:13:34.507Z,53.54
2022-09-28T15:16:36.674Z,53.87
2022-09-28T15:19:41.234Z,53.37
2022-09-28T15:22:46.865Z,55.38
2022-09-28T15:25:53.098Z,53.60
2022-09-28T15:29:15.718Z,54.55
2022-09-28T15:32:24.706Z,54.38
2022-09-28T15:35:27.503Z,55.61
2022-09-28T15:38:32.377Z,56.13
2022-09-28T15:41:34.789Z,55.14
2022-09-28T15:44:39.641Z,55.93
2022-09-28T15:47:43.668Z,56.10
2022-09-28T15:51:12.372Z,56.19
2022-09-28T15:54:19.331Z,56.86
2022-09-28T15:57:30.434Z,56.33
2022-09-28T16:00:33.912Z,57.00
2022-09-28T16:03:36.157Z,56.31
2022-09-28T16:06:40.403Z,56.92
2022-09-28T16:09:56.983Z,57.97
2022-09-28T16:13:10.503Z,60.29
2022-09-28T16:16:16.768Z,59.68
2022-09-28T16:19:24.048Z,59.39
2022-09-28T16:22:28.827Z,59.36
2022-09-28T16:25:33.232Z,63.32
2022-09-28T16:28:36.423Z,63.51
2022-09-28T16:31:41.428Z,64.52
2022-09-28T16:34:43.620Z,64.80
2022-09-28T16:37:47.115Z,65.32
2022-09-28T16:40:51.299Z,66.29
2022-09-28T16:44:02.395Z,66.85
2022-09-28T16:47:06.330Z,66.73
2022-09-28T16:50:12.534Z,67.19
2022-09-28T16:53:34.385Z,66.74
2022-09-28T16:56:37.064Z,67.81
2022-09-28T16:59:39.669Z,66.86
2022-09-28T17:02:46.742Z,68.71
2022-09-28T17:05:50.428Z,67.35
2022-09-28T17:08:52.534Z,67.61
2022-09-28T17:11:56.992Z,66.69
2022-09-28T17:15:00.050Z,67.02
2022-09-28T17:18:02.666Z,66.79
2022-09-28T17:21:06.114Z,68.99
2022-09-28T17:24:09.216Z,68.65
2022-09-28T17:27:15.363Z,72.97
2022-09-28T17:30:23.509Z,75.17
2022-09-28T17:33:29.253Z,75.31
2022-09-28T17:36:31.544Z,73.97
2022-09-28T17:39:33.481Z,73.81
2022-09-28T17:42:36.119Z,70.84
2022-09-28T17:45:41.566Z,71.88
2022-09-28T17:48:46.943Z,75.51
2022-09-28T17:51:50.342Z,75.21
2022-09-28T17:54:53.895Z,80.42
2022-09-28T17:57:55.966Z,79.31
2022-09-28T18:00:58.706Z,83.05
2022-09-28T18:04:01.846Z,88.86
2022-09-28T18:07:03.941Z,92.80
2022-09-28T18:10:06.742Z,93.93
2022-09-28T18:13:09.083Z,99.74
2022-09-28T18:16:11.819Z,100.00
2022-09-28T18:19:13.941Z,100.00
2022-09-28T18:22:16.379Z,100.00
2022-09-28T18:25:18.444Z,100.00
2022-09-28T18:28:21.591Z,100.00
2022-09-28T18:31:23.661Z,100.00
2022-09-28T18:34:26.101Z,100.00
2022-09-28T18:37:28.151Z,100.00
2022-09-28T18:40:30.584Z,100.00
2022-09-28T18:43:35.721Z,100.00
2022-09-28T18:46:39.402Z,100.00
2022-09-28T18:49:46.423Z,100.00
2022-09-28T18:52:49.396Z,100.00
2022-09-28T18:55:51.476Z,100.00
2022-09-28T18:58:53.859Z,100.00
2022-09-28T19:01:55.932Z,100.00
2022-09-28T19:04:59.033Z,100.00
2022-09-28T19:08:01.186Z,100.00
2022-09-28T19:11:14.235Z,100.00
2022-09-28T19:14:16.535Z,100.00
2022-09-28T19:17:18.935Z,100.00
2022-09-28T19:20:21.309Z,100.00
2022-09-28T19:23:26.660Z,100.00
2022-09-28T19:26:29.145Z,100.00
2022-09-28T19:29:31.495Z,100.00
2022-09-28T19:32:33.483Z,100.00
2022-09-28T19:35:35.755Z,100.00
2022-09-28T19:38:38.494Z,100.00
2022-09-28T19:41:43.440Z,100.00
2022-09-28T19:44:47.381Z,100.00
2022-09-28T19:47:49.738Z,100.00
2022-09-28T19:51:10.218Z,100.00
2022-09-28T19:54:13.633Z,100.00
2022-09-28T19:57:16.260Z,100.00
2022-09-28T20:00:18.889Z,100.00
2022-09-28T20:03:21.226Z,100.00
2022-09-28T20:06:23.672Z,100.00
2022-09-28T20:09:26.018Z,100.00
2022-09-28T20:12:28.115Z,100.00
2022-09-28T20:15:31.299Z,100.00
2022-09-28T20:18:37.295Z,100.00
2022-09-28T20:21:39.631Z,100.00
2022-09-28T20:24:41.609Z,100.00
2022-09-28T20:27:44.213Z,100.00
2022-09-28T20:30:46.226Z,100.00
2022-09-28T20:33:49.039Z,100.00
2022-09-28T20:36:50.993Z,100.00
2022-09-28T20:39:53.308Z,100.00
2022-09-28T20:42:55.708Z,100.00
2022-09-28T20:45:58.767Z,100.00
2022-09-28T20:49:00.866Z,100.00
2022-09-28T20:52:03.218Z,100.00
2022-09-28T20:55:05.363Z,100.00
2022-09-28T20:58:07.821Z,100.00
2022-09-28T21:01:20.145Z,100.00
2022-09-28T21:04:22.582Z,100.00
2022-09-28T21:07:24.580Z,100.00
2022-09-28T21:10:30.287Z,100.00
2022-09-28T21:13:32.236Z,100.00
2022-09-28T21:16:35.124Z,100.00
2022-09-28T21:19:37.206Z,100.00
2022-09-28T21:22:39.624Z,100.00
2022-09-28T21:25:41.986Z,100.00
2022-09-28T21:28:46.025Z,100.00
2022-09-28T21:31:47.998Z,100.00
2022-09-28T21:34:50.563Z,100.00
2022-09-28T21:37:52.702Z,100.00
2022-09-28T21:40:56.830Z,100.00
2022-09-28T21:43:59.339Z,100.00
2022-09-28T21:47:01.716Z,100.00
2022-09-28T21:50:03.888Z,100.00
2022-09-28T21:53:06.251Z,100.00
2022-09-28T21:56:10.057Z,100.00
2022-09-28T21:59:12.437Z,100.00
2022-09-28T22:02:14.752Z,100.00
2022-09-28T22:05:17.112Z,100.00
2022-09-28T22:08:19.603Z,100.00
2022-09-28T22:11:23.141Z,100.00
2022-09-28T22:14:25.101Z,100.00
2022-09-28T22:17:27.473Z,100.00
2022-09-28T22:20:29.497Z,100.00
2022-09-28T22:23:32.304Z,100.00
2022-09-28T22:26:35.626Z,100.00
2022-09-28T22:29:37.957Z,100.00
2022-09-28T22:32:40.351Z,100.00
2022-09-28T22:35:42.772Z,100.00
2022-09-28T22:38:44.856Z,100.00
2022-09-28T22:41:47.747Z,100.00
2022-09-28T22:44:49.847Z,100.00
2022-09-28T22:47:52.205Z,100.00
2022-09-28T22:50:54.320Z,100.00
2022-09-28T22:53:56.811Z,100.00
2022-09-28T22:56:58.854Z,100.00
2022-09-28T23:00:01.393Z,100.00
2022-09-28T23:03:03.895Z,100.00
2022-09-28T23:06:07.347Z,100.00
2022-09-28T23:09:09.431Z,100.00
2022-09-28T23:12:11.841Z,100.00
2022-09-28T23:15:14.275Z,100.00
2022-09-28T23:18:16.809Z,100.00
2022-09-28T23:21:21.665Z,100.00
2022-09-28T23:24:24.246Z,100.00
2022-09-28T23:27:26.697Z,100.00
2022-09-28T23:30:29.243Z,100.00
2022-09-28T23:33:31.217Z,100.00
2022-09-28T23:36:34.431Z,100.00
2022-09-28T23:39:36.456Z,100.00
2022-09-28T23:42:38.833Z,100.00
2022-09-28T23:45:42.661Z,100.00
2022-09-28T23:48:45.016Z,100.00
2022-09-28T23:51:47.070Z,100.00
2022-09-28T23:54:49.465Z,100.00
2022-09-28T23:57:55.461Z,100.00
